sensor_id;sensor_type;location;lat;lon;timestamp;P1;durP1;ratioP1;P2;durP2;ratioP2
54460;SDS011;69977;49.414;11.010;2023-05-10T00:02:09;5.27;;;4.77;;
54460;SDS011;69977;49.414;11.010;2023-05-10T00:04:35;6.07;;;5.30;;
54460;SDS011;69977;49.414;11.010;2023-05-10T00:07:01;4.70;;;4.37;;
54460;SDS011;69977;49.414;11.010;2023-05-10T00:09:26;5.83;;;5.33;;
54460;SDS011;69977;49.414;11.010;2023-05-10T00:11:52;5.73;;;5.33;;
54460;SDS011;69977;49.414;11.010;2023-05-10T00:14:18;5.90;;;5.40;;
54460;SDS011;69977;49.414;11.010;2023-05-10T00:16:44;6.37;;;5.70;;
54460;SDS011;69977;49.414;11.010;2023-05-10T00:19:10;5.90;;;5.40;;
54460;SDS011;69977;49.414;11.010;2023-05-10T00:21:36;6.53;;;5.93;;
54460;SDS011;69977;49.414;11.010;2023-05-10T00:24:02;7.83;;;5.90;;
54460;SDS011;69977;49.414;11.010;2023-05-10T00:26:27;6.50;;;6.00;;
54460;SDS011;69977;49.414;11.010;2023-05-10T00:28:55;7.17;;;6.40;;
54460;SDS011;69977;49.414;11.010;2023-05-10T00:31:21;6.67;;;6.07;;
54460;SDS011;69977;49.414;11.010;2023-05-10T00:33:47;7.17;;;6.57;;
54460;SDS011;69977;49.414;11.010;2023-05-10T00:36:13;7.17;;;6.57;;
54460;SDS011;69977;49.414;11.010;2023-05-10T00:38:40;6.90;;;6.30;;
54460;SDS011;69977;49.414;11.010;2023-05-10T00:41:05;6.70;;;6.10;;
54460;SDS011;69977;49.414;11.010;2023-05-10T00:43:33;6.87;;;6.27;;
54460;SDS011;69977;49.414;11.010;2023-05-10T00:45:59;6.97;;;6.47;;
54460;SDS011;69977;49.414;11.010;2023-05-10T00:48:25;7.40;;;6.73;;
54460;SDS011;69977;49.414;11.010;2023-05-10T00:50:51;7.43;;;6.80;;
54460;SDS011;69977;49.414;11.010;2023-05-10T00:53:17;6.80;;;6.13;;
54460;SDS011;69977;49.414;11.010;2023-05-10T00:55:43;6.83;;;6.33;;
54460;SDS011;69977;49.414;11.010;2023-05-10T00:58:09;6.00;;;5.60;;
54460;SDS011;69977;49.414;11.010;2023-05-10T01:00:35;6.93;;;6.33;;
54460;SDS011;69977;49.414;11.010;2023-05-10T01:03:03;6.10;;;5.60;;
54460;SDS011;69977;49.414;11.010;2023-05-10T01:05:29;7.50;;;6.80;;
54460;SDS011;69977;49.414;11.010;2023-05-10T01:07:56;6.73;;;6.20;;
54460;SDS011;69977;49.414;11.010;2023-05-10T01:10:22;7.47;;;6.77;;
54460;SDS011;69977;49.414;11.010;2023-05-10T01:12:48;7.30;;;6.60;;
54460;SDS011;69977;49.414;11.010;2023-05-10T01:15:15;7.63;;;7.03;;
54460;SDS011;69977;49.414;11.010;2023-05-10T01:17:44;7.80;;;7.10;;
54460;SDS011;69977;49.414;11.010;2023-05-10T01:20:11;7.73;;;6.90;;
54460;SDS011;69977;49.414;11.010;2023-05-10T01:22:49;7.53;;;6.83;;
54460;SDS011;69977;49.414;11.010;2023-05-10T01:34:06;5.97;;;5.47;;
54460;SDS011;69977;49.414;11.010;2023-05-10T01:36:39;6.63;;;6.03;;
54460;SDS011;69977;49.414;11.010;2023-05-10T01:39:21;6.17;;;5.63;;
54460;SDS011;69977;49.414;11.010;2023-05-10T01:41:52;6.07;;;5.57;;
54460;SDS011;69977;49.414;11.010;2023-05-10T01:47:35;5.80;;;5.40;;
54460;SDS011;69977;49.414;11.010;2023-05-10T01:50:06;6.60;;;5.50;;
54460;SDS011;69977;49.414;11.010;2023-05-10T01:52:41;5.90;;;5.30;;
54460;SDS011;69977;49.414;11.010;2023-05-10T01:55:11;6.40;;;5.80;;
54460;SDS011;69977;49.414;11.010;2023-05-10T01:57:42;6.03;;;5.53;;
54460;SDS011;69977;49.414;11.010;2023-05-10T02:00:09;6.80;;;6.20;;
54460;SDS011;69977;49.414;11.010;2023-05-10T02:02:45;7.23;;;5.87;;
54460;SDS011;69977;49.414;11.010;2023-05-10T02:05:12;6.63;;;6.03;;
54460;SDS011;69977;49.414;11.010;2023-05-10T02:07:40;6.27;;;5.77;;
54460;SDS011;69977;49.414;11.010;2023-05-10T02:10:07;6.47;;;5.73;;
54460;SDS011;69977;49.414;11.010;2023-05-10T02:12:52;6.17;;;5.57;;
54460;SDS011;69977;49.414;11.010;2023-05-10T02:15:20;5.97;;;5.47;;
54460;SDS011;69977;49.414;11.010;2023-05-10T02:17:48;5.97;;;5.47;;
54460;SDS011;69977;49.414;11.010;2023-05-10T02:20:14;6.17;;;5.37;;
54460;SDS011;69977;49.414;11.010;2023-05-10T02:22:42;5.80;;;5.30;;
54460;SDS011;69977;49.414;11.010;2023-05-10T02:25:10;5.83;;;5.37;;
54460;SDS011;69977;49.414;11.010;2023-05-10T02:27:38;5.90;;;5.40;;
54460;SDS011;69977;49.414;11.010;2023-05-10T02:30:07;5.83;;;5.37;;
54460;SDS011;69977;49.414;11.010;2023-05-10T02:32:35;5.50;;;5.00;;
54460;SDS011;69977;49.414;11.010;2023-05-10T02:35:02;5.63;;;5.13;;
54460;SDS011;69977;49.414;11.010;2023-05-10T02:37:28;4.63;;;4.30;;
54460;SDS011;69977;49.414;11.010;2023-05-10T02:39:55;4.30;;;4.00;;
54460;SDS011;69977;49.414;11.010;2023-05-10T02:42:24;5.00;;;4.60;;
54460;SDS011;69977;49.414;11.010;2023-05-10T02:45:01;4.30;;;4.00;;
54460;SDS011;69977;49.414;11.010;2023-05-10T02:47:30;5.00;;;4.50;;
54460;SDS011;69977;49.414;11.010;2023-05-10T02:49:56;4.50;;;4.20;;
54460;SDS011;69977;49.414;11.010;2023-05-10T02:52:29;4.60;;;4.20;;
54460;SDS011;69977;49.414;11.010;2023-05-10T02:55:22;3.00;;;2.80;;
54460;SDS011;69977;49.414;11.010;2023-05-10T02:57:58;2.70;;;2.50;;
54460;SDS011;69977;49.414;11.010;2023-05-10T03:00:25;2.20;;;2.10;;
54460;SDS011;69977;49.414;11.010;2023-05-10T03:02:51;2.03;;;1.93;;
54460;SDS011;69977;49.414;11.010;2023-05-10T03:05:18;2.10;;;2.00;;
54460;SDS011;69977;49.414;11.010;2023-05-10T03:07:45;2.30;;;2.10;;
54460;SDS011;69977;49.414;11.010;2023-05-10T03:10:11;2.70;;;2.50;;
54460;SDS011;69977;49.414;11.010;2023-05-10T03:15:31;1.33;;;1.23;;
54460;SDS011;69977;49.414;11.010;2023-05-10T03:21:07;4.60;;;1.50;;
54460;SDS011;69977;49.414;11.010;2023-05-10T03:23:43;1.60;;;1.50;;
54460;SDS011;69977;49.414;11.010;2023-05-10T03:26:14;1.23;;;1.23;;
54460;SDS011;69977;49.414;11.010;2023-05-10T03:28:46;1.53;;;1.30;;
54460;SDS011;69977;49.414;11.010;2023-05-10T03:31:13;1.53;;;1.43;;
54460;SDS011;69977;49.414;11.010;2023-05-10T03:33:47;1.43;;;1.33;;
54460;SDS011;69977;49.414;11.010;2023-05-10T03:36:14;1.13;;;1.13;;
54460;SDS011;69977;49.414;11.010;2023-05-10T03:38:39;0.90;;;0.90;;
54460;SDS011;69977;49.414;11.010;2023-05-10T03:41:05;1.30;;;1.20;;
54460;SDS011;69977;49.414;11.010;2023-05-10T03:43:31;1.20;;;1.20;;
54460;SDS011;69977;49.414;11.010;2023-05-10T03:45:57;1.10;;;1.10;;
54460;SDS011;69977;49.414;11.010;2023-05-10T03:48:23;1.00;;;0.90;;
54460;SDS011;69977;49.414;11.010;2023-05-10T03:50:49;1.23;;;1.10;;
54460;SDS011;69977;49.414;11.010;2023-05-10T03:53:15;0.80;;;0.80;;
54460;SDS011;69977;49.414;11.010;2023-05-10T03:55:40;1.10;;;1.00;;
54460;SDS011;69977;49.414;11.010;2023-05-10T03:58:06;1.07;;;1.07;;
54460;SDS011;69977;49.414;11.010;2023-05-10T04:00:35;0.90;;;0.90;;
54460;SDS011;69977;49.414;11.010;2023-05-10T04:03:01;1.13;;;0.90;;
54460;SDS011;69977;49.414;11.010;2023-05-10T04:05:27;1.80;;;0.80;;
54460;SDS011;69977;49.414;11.010;2023-05-10T04:07:52;0.53;;;0.53;;
54460;SDS011;69977;49.414;11.010;2023-05-10T04:10:18;0.70;;;0.63;;
54460;SDS011;69977;49.414;11.010;2023-05-10T04:12:44;0.90;;;0.77;;
54460;SDS011;69977;49.414;11.010;2023-05-10T04:15:10;0.57;;;0.57;;
54460;SDS011;69977;49.414;11.010;2023-05-10T04:17:36;0.57;;;0.57;;
54460;SDS011;69977;49.414;11.010;2023-05-10T04:20:02;1.57;;;0.70;;
54460;SDS011;69977;49.414;11.010;2023-05-10T04:22:28;0.60;;;0.60;;
54460;SDS011;69977;49.414;11.010;2023-05-10T04:24:54;1.20;;;0.63;;
54460;SDS011;69977;49.414;11.010;2023-05-10T04:27:20;0.60;;;0.60;;
54460;SDS011;69977;49.414;11.010;2023-05-10T04:29:46;0.80;;;0.80;;
54460;SDS011;69977;49.414;11.010;2023-05-10T04:32:11;0.50;;;0.50;;
54460;SDS011;69977;49.414;11.010;2023-05-10T04:34:37;0.73;;;0.67;;
54460;SDS011;69977;49.414;11.010;2023-05-10T04:37:03;0.60;;;0.60;;
54460;SDS011;69977;49.414;11.010;2023-05-10T04:39:29;0.83;;;0.83;;
54460;SDS011;69977;49.414;11.010;2023-05-10T04:41:54;0.53;;;0.53;;
54460;SDS011;69977;49.414;11.010;2023-05-10T04:44:20;1.60;;;0.60;;
54460;SDS011;69977;49.414;11.010;2023-05-10T04:46:46;1.80;;;0.60;;
54460;SDS011;69977;49.414;11.010;2023-05-10T04:49:12;0.47;;;0.47;;
54460;SDS011;69977;49.414;11.010;2023-05-10T04:51:37;0.43;;;0.43;;
54460;SDS011;69977;49.414;11.010;2023-05-10T04:54:03;0.60;;;0.60;;
54460;SDS011;69977;49.414;11.010;2023-05-10T04:56:29;0.77;;;0.60;;
54460;SDS011;69977;49.414;11.010;2023-05-10T04:58:55;0.67;;;0.67;;
54460;SDS011;69977;49.414;11.010;2023-05-10T05:01:20;0.50;;;0.50;;
54460;SDS011;69977;49.414;11.010;2023-05-10T05:03:48;0.80;;;0.80;;
54460;SDS011;69977;49.414;11.010;2023-05-10T05:06:13;2.60;;;0.60;;
54460;SDS011;69977;49.414;11.010;2023-05-10T05:08:39;0.50;;;0.50;;
54460;SDS011;69977;49.414;11.010;2023-05-10T05:11:05;0.70;;;0.70;;
54460;SDS011;69977;49.414;11.010;2023-05-10T05:13:31;0.50;;;0.50;;
54460;SDS011;69977;49.414;11.010;2023-05-10T05:15:57;0.80;;;0.80;;
54460;SDS011;69977;49.414;11.010;2023-05-10T05:18:25;0.80;;;0.80;;
54460;SDS011;69977;49.414;11.010;2023-05-10T05:20:50;1.07;;;0.60;;
54460;SDS011;69977;49.414;11.010;2023-05-10T05:23:16;0.60;;;0.60;;
54460;SDS011;69977;49.414;11.010;2023-05-10T05:25:43;1.00;;;0.60;;
54460;SDS011;69977;49.414;11.010;2023-05-10T05:28:08;0.60;;;0.60;;
54460;SDS011;69977;49.414;11.010;2023-05-10T05:30:34;1.17;;;0.67;;
54460;SDS011;69977;49.414;11.010;2023-05-10T05:33:00;1.17;;;0.60;;
54460;SDS011;69977;49.414;11.010;2023-05-10T05:35:26;1.97;;;0.50;;
54460;SDS011;69977;49.414;11.010;2023-05-10T05:37:52;0.47;;;0.47;;
54460;SDS011;69977;49.414;11.010;2023-05-10T05:40:17;1.33;;;0.90;;
54460;SDS011;69977;49.414;11.010;2023-05-10T05:42:43;0.63;;;0.63;;
54460;SDS011;69977;49.414;11.010;2023-05-10T05:45:09;0.50;;;0.50;;
54460;SDS011;69977;49.414;11.010;2023-05-10T05:47:38;0.60;;;0.60;;
54460;SDS011;69977;49.414;11.010;2023-05-10T05:50:05;0.53;;;0.53;;
54460;SDS011;69977;49.414;11.010;2023-05-10T05:52:31;1.37;;;0.90;;
54460;SDS011;69977;49.414;11.010;2023-05-10T05:54:57;1.07;;;0.70;;
54460;SDS011;69977;49.414;11.010;2023-05-10T05:57:22;2.40;;;0.80;;
54460;SDS011;69977;49.414;11.010;2023-05-10T05:59:48;0.80;;;0.80;;
54460;SDS011;69977;49.414;11.010;2023-05-10T06:02:14;0.97;;;0.97;;
54460;SDS011;69977;49.414;11.010;2023-05-10T06:04:40;0.70;;;0.70;;
54460;SDS011;69977;49.414;11.010;2023-05-10T06:07:05;0.90;;;0.90;;
54460;SDS011;69977;49.414;11.010;2023-05-10T06:09:31;1.17;;;1.00;;
54460;SDS011;69977;49.414;11.010;2023-05-10T06:11:57;2.97;;;0.60;;
54460;SDS011;69977;49.414;11.010;2023-05-10T06:14:23;2.93;;;0.90;;
54460;SDS011;69977;49.414;11.010;2023-05-10T06:16:48;1.37;;;0.70;;
54460;SDS011;69977;49.414;11.010;2023-05-10T06:19:15;1.10;;;0.80;;
54460;SDS011;69977;49.414;11.010;2023-05-10T06:21:40;0.80;;;0.80;;
54460;SDS011;69977;49.414;11.010;2023-05-10T06:24:06;1.13;;;1.03;;
54460;SDS011;69977;49.414;11.010;2023-05-10T06:26:32;1.23;;;1.13;;
54460;SDS011;69977;49.414;11.010;2023-05-10T06:28:58;1.00;;;1.00;;
54460;SDS011;69977;49.414;11.010;2023-05-10T06:31:24;0.90;;;0.90;;
54460;SDS011;69977;49.414;11.010;2023-05-10T06:33:50;1.47;;;1.37;;
54460;SDS011;69977;49.414;11.010;2023-05-10T06:36:15;1.10;;;1.10;;
54460;SDS011;69977;49.414;11.010;2023-05-10T06:38:41;1.20;;;1.10;;
54460;SDS011;69977;49.414;11.010;2023-05-10T06:41:07;1.00;;;1.00;;
54460;SDS011;69977;49.414;11.010;2023-05-10T06:43:33;0.90;;;0.90;;
54460;SDS011;69977;49.414;11.010;2023-05-10T06:45:59;1.10;;;1.10;;
54460;SDS011;69977;49.414;11.010;2023-05-10T06:48:24;0.90;;;0.90;;
54460;SDS011;69977;49.414;11.010;2023-05-10T06:50:50;1.73;;;0.97;;
54460;SDS011;69977;49.414;11.010;2023-05-10T06:53:16;0.80;;;0.80;;
54460;SDS011;69977;49.414;11.010;2023-05-10T06:55:42;1.33;;;1.03;;
54460;SDS011;69977;49.414;11.010;2023-05-10T06:58:08;0.90;;;0.90;;
54460;SDS011;69977;49.414;11.010;2023-05-10T07:00:36;1.00;;;0.80;;
54460;SDS011;69977;49.414;11.010;2023-05-10T07:03:05;0.90;;;0.90;;
54460;SDS011;69977;49.414;11.010;2023-05-10T07:05:32;0.90;;;0.87;;
54460;SDS011;69977;49.414;11.010;2023-05-10T07:07:57;1.23;;;1.13;;
54460;SDS011;69977;49.414;11.010;2023-05-10T07:10:23;0.87;;;0.87;;
54460;SDS011;69977;49.414;11.010;2023-05-10T07:12:49;1.37;;;0.77;;
54460;SDS011;69977;49.414;11.010;2023-05-10T07:15:15;0.83;;;0.83;;
54460;SDS011;69977;49.414;11.010;2023-05-10T07:17:41;0.93;;;0.93;;
54460;SDS011;69977;49.414;11.010;2023-05-10T07:20:06;1.10;;;1.10;;
54460;SDS011;69977;49.414;11.010;2023-05-10T07:22:33;1.13;;;1.03;;
54460;SDS011;69977;49.414;11.010;2023-05-10T07:24:59;0.87;;;0.87;;
54460;SDS011;69977;49.414;11.010;2023-05-10T07:27:24;0.90;;;0.90;;
54460;SDS011;69977;49.414;11.010;2023-05-10T07:29:50;0.80;;;0.80;;
54460;SDS011;69977;49.414;11.010;2023-05-10T07:32:16;1.43;;;1.33;;
54460;SDS011;69977;49.414;11.010;2023-05-10T07:34:42;1.00;;;1.00;;
54460;SDS011;69977;49.414;11.010;2023-05-10T07:37:08;3.33;;;1.30;;
54460;SDS011;69977;49.414;11.010;2023-05-10T07:39:34;2.23;;;1.43;;
54460;SDS011;69977;49.414;11.010;2023-05-10T07:41:59;0.80;;;0.80;;
54460;SDS011;69977;49.414;11.010;2023-05-10T07:44:25;1.67;;;1.33;;
54460;SDS011;69977;49.414;11.010;2023-05-10T07:46:51;1.77;;;1.27;;
54460;SDS011;69977;49.414;11.010;2023-05-10T07:49:17;1.20;;;1.00;;
54460;SDS011;69977;49.414;11.010;2023-05-10T07:51:43;2.20;;;1.13;;
54460;SDS011;69977;49.414;11.010;2023-05-10T07:54:08;1.37;;;1.13;;
54460;SDS011;69977;49.414;11.010;2023-05-10T07:56:34;1.40;;;1.30;;
54460;SDS011;69977;49.414;11.010;2023-05-10T07:59:00;1.17;;;1.17;;
54460;SDS011;69977;49.414;11.010;2023-05-10T08:01:32;1.60;;;1.00;;
54460;SDS011;69977;49.414;11.010;2023-05-10T08:03:59;1.23;;;1.13;;
54460;SDS011;69977;49.414;11.010;2023-05-10T08:06:25;1.70;;;1.30;;
54460;SDS011;69977;49.414;11.010;2023-05-10T08:08:53;1.10;;;1.10;;
54460;SDS011;69977;49.414;11.010;2023-05-10T08:11:19;0.90;;;0.80;;
54460;SDS011;69977;49.414;11.010;2023-05-10T08:13:45;0.93;;;0.93;;
54460;SDS011;69977;49.414;11.010;2023-05-10T08:16:12;1.63;;;1.20;;
54460;SDS011;69977;49.414;11.010;2023-05-10T08:18:38;1.70;;;0.93;;
54460;SDS011;69977;49.414;11.010;2023-05-10T08:21:04;0.90;;;0.90;;
54460;SDS011;69977;49.414;11.010;2023-05-10T08:23:30;0.90;;;0.90;;
54460;SDS011;69977;49.414;11.010;2023-05-10T08:25:56;1.23;;;1.20;;
54460;SDS011;69977;49.414;11.010;2023-05-10T08:28:22;2.17;;;1.10;;
54460;SDS011;69977;49.414;11.010;2023-05-10T08:30:49;1.40;;;1.30;;
54460;SDS011;69977;49.414;11.010;2023-05-10T08:33:15;1.37;;;1.27;;
54460;SDS011;69977;49.414;11.010;2023-05-10T08:35:42;1.63;;;1.50;;
54460;SDS011;69977;49.414;11.010;2023-05-10T08:38:08;2.13;;;1.40;;
54460;SDS011;69977;49.414;11.010;2023-05-10T08:40:34;1.40;;;1.30;;
54460;SDS011;69977;49.414;11.010;2023-05-10T08:43:05;1.53;;;1.43;;
54460;SDS011;69977;49.414;11.010;2023-05-10T08:45:35;1.90;;;1.40;;
54460;SDS011;69977;49.414;11.010;2023-05-10T08:48:04;1.10;;;1.10;;
54460;SDS011;69977;49.414;11.010;2023-05-10T08:50:32;5.10;;;1.10;;
54460;SDS011;69977;49.414;11.010;2023-05-10T08:53:04;1.67;;;1.20;;
54460;SDS011;69977;49.414;11.010;2023-05-10T08:55:38;3.20;;;1.50;;
54460;SDS011;69977;49.414;11.010;2023-05-10T08:58:05;1.67;;;1.57;;
54460;SDS011;69977;49.414;11.010;2023-05-10T09:00:32;1.83;;;1.73;;
54460;SDS011;69977;49.414;11.010;2023-05-10T09:02:58;4.80;;;1.97;;
54460;SDS011;69977;49.414;11.010;2023-05-10T09:05:25;2.00;;;1.80;;
54460;SDS011;69977;49.414;11.010;2023-05-10T09:07:51;2.27;;;1.80;;
54460;SDS011;69977;49.414;11.010;2023-05-10T09:10:18;3.20;;;1.70;;
54460;SDS011;69977;49.414;11.010;2023-05-10T09:12:44;1.90;;;1.80;;
54460;SDS011;69977;49.414;11.010;2023-05-10T09:15:11;1.90;;;1.80;;
54460;SDS011;69977;49.414;11.010;2023-05-10T09:17:40;1.70;;;1.60;;
54460;SDS011;69977;49.414;11.010;2023-05-10T09:20:07;2.83;;;2.00;;
54460;SDS011;69977;49.414;11.010;2023-05-10T09:22:33;2.50;;;1.53;;
54460;SDS011;69977;49.414;11.010;2023-05-10T09:25:18;1.90;;;1.80;;
54460;SDS011;69977;49.414;11.010;2023-05-10T09:27:45;1.73;;;1.63;;
54460;SDS011;69977;49.414;11.010;2023-05-10T09:30:28;2.03;;;1.40;;
54460;SDS011;69977;49.414;11.010;2023-05-10T09:32:55;1.53;;;1.43;;
54460;SDS011;69977;49.414;11.010;2023-05-10T09:35:23;2.77;;;1.40;;
54460;SDS011;69977;49.414;11.010;2023-05-10T09:37:52;2.70;;;1.70;;
54460;SDS011;69977;49.414;11.010;2023-05-10T09:40:20;1.87;;;1.53;;
54460;SDS011;69977;49.414;11.010;2023-05-10T09:43:00;2.20;;;1.40;;
54460;SDS011;69977;49.414;11.010;2023-05-10T09:45:32;1.00;;;1.00;;
54460;SDS011;69977;49.414;11.010;2023-05-10T09:47:59;2.67;;;1.47;;
54460;SDS011;69977;49.414;11.010;2023-05-10T09:50:27;1.63;;;1.40;;
54460;SDS011;69977;49.414;11.010;2023-05-10T09:52:57;2.67;;;1.33;;
54460;SDS011;69977;49.414;11.010;2023-05-10T09:55:44;1.40;;;1.30;;
54460;SDS011;69977;49.414;11.010;2023-05-10T09:58:12;1.70;;;1.03;;
54460;SDS011;69977;49.414;11.010;2023-05-10T10:00:39;2.17;;;1.17;;
54460;SDS011;69977;49.414;11.010;2023-05-10T10:03:11;2.83;;;1.40;;
54460;SDS011;69977;49.414;11.010;2023-05-10T10:05:40;2.30;;;1.40;;
54460;SDS011;69977;49.414;11.010;2023-05-10T10:08:07;1.40;;;1.27;;
54460;SDS011;69977;49.414;11.010;2023-05-10T10:10:33;1.50;;;1.40;;
54460;SDS011;69977;49.414;11.010;2023-05-10T10:12:59;1.43;;;1.00;;
54460;SDS011;69977;49.414;11.010;2023-05-10T10:15:25;3.80;;;1.20;;
54460;SDS011;69977;49.414;11.010;2023-05-10T10:17:51;1.30;;;1.10;;
54460;SDS011;69977;49.414;11.010;2023-05-10T10:20:18;1.83;;;1.10;;
54460;SDS011;69977;49.414;11.010;2023-05-10T10:22:46;1.67;;;0.90;;
54460;SDS011;69977;49.414;11.010;2023-05-10T10:25:13;2.27;;;0.97;;
54460;SDS011;69977;49.414;11.010;2023-05-10T10:35:29;1.07;;;1.07;;
54460;SDS011;69977;49.414;11.010;2023-05-10T10:37:55;3.27;;;1.27;;
54460;SDS011;69977;49.414;11.010;2023-05-10T10:42:54;0.90;;;0.90;;
54460;SDS011;69977;49.414;11.010;2023-05-10T10:45:21;1.03;;;0.70;;
54460;SDS011;69977;49.414;11.010;2023-05-10T10:47:48;1.00;;;0.87;;
54460;SDS011;69977;49.414;11.010;2023-05-10T10:50:14;0.90;;;0.83;;
54460;SDS011;69977;49.414;11.010;2023-05-10T10:52:44;0.70;;;0.70;;
54460;SDS011;69977;49.414;11.010;2023-05-10T11:03:11;3.47;;;0.93;;
54460;SDS011;69977;49.414;11.010;2023-05-10T11:05:44;0.70;;;0.70;;
54460;SDS011;69977;49.414;11.010;2023-05-10T11:10:39;0.97;;;0.97;;
54460;SDS011;69977;49.414;11.010;2023-05-10T11:13:06;1.23;;;0.90;;
54460;SDS011;69977;49.414;11.010;2023-05-10T11:15:36;0.90;;;0.90;;
54460;SDS011;69977;49.414;11.010;2023-05-10T11:18:25;1.00;;;1.00;;
54460;SDS011;69977;49.414;11.010;2023-05-10T11:20:51;2.27;;;0.97;;
54460;SDS011;69977;49.414;11.010;2023-05-10T11:23:23;2.03;;;1.27;;
54460;SDS011;69977;49.414;11.010;2023-05-10T11:25:49;1.90;;;1.20;;
54460;SDS011;69977;49.414;11.010;2023-05-10T11:28:16;1.27;;;1.17;;
54460;SDS011;69977;49.414;11.010;2023-05-10T11:30:44;3.00;;;1.27;;
54460;SDS011;69977;49.414;11.010;2023-05-10T11:33:15;1.60;;;1.50;;
54460;SDS011;69977;49.414;11.010;2023-05-10T11:35:42;1.70;;;1.10;;
54460;SDS011;69977;49.414;11.010;2023-05-10T11:38:08;2.37;;;1.50;;
54460;SDS011;69977;49.414;11.010;2023-05-10T11:40:35;3.10;;;1.60;;
54460;SDS011;69977;49.414;11.010;2023-05-10T11:43:02;1.70;;;1.60;;
54460;SDS011;69977;49.414;11.010;2023-05-10T11:45:29;2.00;;;1.27;;
54460;SDS011;69977;49.414;11.010;2023-05-10T11:47:58;1.20;;;1.20;;
54460;SDS011;69977;49.414;11.010;2023-05-10T11:50:24;1.87;;;1.30;;
54460;SDS011;69977;49.414;11.010;2023-05-10T11:52:57;1.57;;;1.10;;
54460;SDS011;69977;49.414;11.010;2023-05-10T11:55:23;1.20;;;1.10;;
54460;SDS011;69977;49.414;11.010;2023-05-10T11:57:53;1.53;;;1.10;;
54460;SDS011;69977;49.414;11.010;2023-05-10T12:00:19;1.10;;;1.10;;
54460;SDS011;69977;49.414;11.010;2023-05-10T12:02:46;1.77;;;1.20;;
54460;SDS011;69977;49.414;11.010;2023-05-10T12:05:12;0.90;;;0.90;;
54460;SDS011;69977;49.414;11.010;2023-05-10T12:07:38;1.00;;;0.93;;
54460;SDS011;69977;49.414;11.010;2023-05-10T12:10:08;3.10;;;0.93;;
54460;SDS011;69977;49.414;11.010;2023-05-10T12:12:37;0.80;;;0.70;;
54460;SDS011;69977;49.414;11.010;2023-05-10T12:15:05;0.70;;;0.70;;
54460;SDS011;69977;49.414;11.010;2023-05-10T12:17:36;0.73;;;0.57;;
54460;SDS011;69977;49.414;11.010;2023-05-10T12:20:16;0.80;;;0.80;;
54460;SDS011;69977;49.414;11.010;2023-05-10T12:22:55;1.20;;;0.67;;
54460;SDS011;69977;49.414;11.010;2023-05-10T12:25:24;0.60;;;0.60;;
54460;SDS011;69977;49.414;11.010;2023-05-10T12:27:56;0.70;;;0.70;;
54460;SDS011;69977;49.414;11.010;2023-05-10T12:30:27;0.60;;;0.60;;
54460;SDS011;69977;49.414;11.010;2023-05-10T12:32:54;1.07;;;0.70;;
54460;SDS011;69977;49.414;11.010;2023-05-10T12:35:26;1.37;;;0.77;;
54460;SDS011;69977;49.414;11.010;2023-05-10T12:37:54;0.73;;;0.73;;
54460;SDS011;69977;49.414;11.010;2023-05-10T12:40:20;1.57;;;0.73;;
54460;SDS011;69977;49.414;11.010;2023-05-10T12:42:46;1.23;;;0.90;;
54460;SDS011;69977;49.414;11.010;2023-05-10T12:45:12;1.73;;;0.60;;
54460;SDS011;69977;49.414;11.010;2023-05-10T12:47:38;0.60;;;0.60;;
54460;SDS011;69977;49.414;11.010;2023-05-10T12:50:04;1.20;;;0.70;;
54460;SDS011;69977;49.414;11.010;2023-05-10T12:52:31;1.97;;;1.10;;
54460;SDS011;69977;49.414;11.010;2023-05-10T12:54:57;0.70;;;0.70;;
54460;SDS011;69977;49.414;11.010;2023-05-10T12:57:24;0.90;;;0.90;;
54460;SDS011;69977;49.414;11.010;2023-05-10T12:59:50;0.90;;;0.90;;
54460;SDS011;69977;49.414;11.010;2023-05-10T13:02:16;1.23;;;0.80;;
54460;SDS011;69977;49.414;11.010;2023-05-10T13:04:45;0.67;;;0.67;;
54460;SDS011;69977;49.414;11.010;2023-05-10T13:07:11;1.90;;;1.10;;
54460;SDS011;69977;49.414;11.010;2023-05-10T13:09:37;0.80;;;0.80;;
54460;SDS011;69977;49.414;11.010;2023-05-10T13:12:03;2.47;;;0.80;;
54460;SDS011;69977;49.414;11.010;2023-05-10T13:14:29;1.40;;;1.07;;
54460;SDS011;69977;49.414;11.010;2023-05-10T13:16:55;1.27;;;0.77;;
54460;SDS011;69977;49.414;11.010;2023-05-10T13:19:20;2.03;;;1.10;;
54460;SDS011;69977;49.414;11.010;2023-05-10T13:21:46;1.70;;;0.97;;
54460;SDS011;69977;49.414;11.010;2023-05-10T13:24:12;0.90;;;0.90;;
54460;SDS011;69977;49.414;11.010;2023-05-10T13:26:42;1.10;;;1.00;;
54460;SDS011;69977;49.414;11.010;2023-05-10T13:29:08;1.13;;;0.70;;
54460;SDS011;69977;49.414;11.010;2023-05-10T13:31:34;1.57;;;0.83;;
54460;SDS011;69977;49.414;11.010;2023-05-10T13:34:01;2.30;;;0.93;;
54460;SDS011;69977;49.414;11.010;2023-05-10T13:36:27;1.50;;;1.40;;
54460;SDS011;69977;49.414;11.010;2023-05-10T13:38:53;0.93;;;0.93;;
54460;SDS011;69977;49.414;11.010;2023-05-10T13:41:19;2.47;;;0.80;;
54460;SDS011;69977;49.414;11.010;2023-05-10T13:43:45;1.57;;;0.83;;
54460;SDS011;69977;49.414;11.010;2023-05-10T13:46:10;2.47;;;1.10;;
54460;SDS011;69977;49.414;11.010;2023-05-10T13:48:36;3.03;;;1.00;;
54460;SDS011;69977;49.414;11.010;2023-05-10T13:51:02;1.30;;;1.30;;
54460;SDS011;69977;49.414;11.010;2023-05-10T13:53:28;1.53;;;1.07;;
54460;SDS011;69977;49.414;11.010;2023-05-10T13:55:54;2.10;;;1.93;;
54460;SDS011;69977;49.414;11.010;2023-05-10T13:58:20;1.10;;;1.00;;
54460;SDS011;69977;49.414;11.010;2023-05-10T14:00:46;5.40;;;0.83;;
54460;SDS011;69977;49.414;11.010;2023-05-10T14:03:11;0.97;;;0.77;;
54460;SDS011;69977;49.414;11.010;2023-05-10T14:05:37;2.17;;;0.60;;
54460;SDS011;69977;49.414;11.010;2023-05-10T14:08:03;2.10;;;0.97;;
54460;SDS011;69977;49.414;11.010;2023-05-10T14:10:29;2.57;;;0.83;;
54460;SDS011;69977;49.414;11.010;2023-05-10T14:12:56;1.47;;;0.97;;
54460;SDS011;69977;49.414;11.010;2023-05-10T14:15:22;2.97;;;0.93;;
54460;SDS011;69977;49.414;11.010;2023-05-10T14:17:48;0.90;;;0.90;;
54460;SDS011;69977;49.414;11.010;2023-05-10T14:20:14;5.40;;;0.90;;
54460;SDS011;69977;49.414;11.010;2023-05-10T14:22:40;0.87;;;0.80;;
54460;SDS011;69977;49.414;11.010;2023-05-10T14:25:06;1.00;;;0.90;;
54460;SDS011;69977;49.414;11.010;2023-05-10T14:27:32;1.03;;;0.90;;
54460;SDS011;69977;49.414;11.010;2023-05-10T14:29:57;3.00;;;0.80;;
54460;SDS011;69977;49.414;11.010;2023-05-10T14:32:23;2.03;;;0.90;;
54460;SDS011;69977;49.414;11.010;2023-05-10T14:34:49;1.17;;;0.90;;
54460;SDS011;69977;49.414;11.010;2023-05-10T14:37:15;0.67;;;0.67;;
54460;SDS011;69977;49.414;11.010;2023-05-10T14:39:41;0.80;;;0.80;;
54460;SDS011;69977;49.414;11.010;2023-05-10T14:42:07;1.10;;;0.93;;
54460;SDS011;69977;49.414;11.010;2023-05-10T14:44:34;1.87;;;0.97;;
54460;SDS011;69977;49.414;11.010;2023-05-10T14:46:59;0.80;;;0.80;;
54460;SDS011;69977;49.414;11.010;2023-05-10T14:49:25;2.73;;;0.93;;
54460;SDS011;69977;49.414;11.010;2023-05-10T14:51:51;0.70;;;0.70;;
54460;SDS011;69977;49.414;11.010;2023-05-10T14:54:17;0.80;;;0.80;;
54460;SDS011;69977;49.414;11.010;2023-05-10T14:56:43;0.77;;;0.77;;
54460;SDS011;69977;49.414;11.010;2023-05-10T14:59:09;1.03;;;0.80;;
54460;SDS011;69977;49.414;11.010;2023-05-10T15:01:35;0.87;;;0.83;;
54460;SDS011;69977;49.414;11.010;2023-05-10T15:04:05;0.83;;;0.83;;
54460;SDS011;69977;49.414;11.010;2023-05-10T15:06:31;2.23;;;1.00;;
54460;SDS011;69977;49.414;11.010;2023-05-10T15:09:01;2.07;;;1.13;;
54460;SDS011;69977;49.414;11.010;2023-05-10T15:11:28;0.80;;;0.60;;
54460;SDS011;69977;49.414;11.010;2023-05-10T15:13:54;6.83;;;0.90;;